LIPL

Ghedi Airport

Ghedi, Italy
TAF LIPL 260200Z 2603/2612 28005KT CAVOK PROB30 TEMPO 2603/2606 5000 BR SCT015
Issued Valid From Valid To
Apr-26 @ 02:00 UTC
(2 hours ago)
Apr-26 @ 03:00 UTC
(54 minutes ago)
Apr-26 @ 12:00 UTC
(in 8 hours)
Apr-26 @ 03:00 to Apr-26 @ 12:00
TAF LIPL 260200Z 2603/2612 28005KT CAVOK
Wind Visibility Clouds Conditions
280° at 5 knots 10,000+ meters
  • No significant clouds
Temporary  (Probability 30%) Apr-26 @ 03:00 to Apr-26 @ 06:00
PROB30 TEMPO 2603/2606 5000 BR SCT015
Visibility Clouds Conditions
5,005 meters
  • Scattered at 1,500' AGL
  • Mist
TAF LIPL 260200Z 2603/2612 28005KT CAVOK PROB30 TEMPO 2603/2606 5000 BR SCT015
Issued Apr-26 @ 02:00 UTC
(2 hours ago)
Valid From Apr-26 @ 03:00 UTC
(54 minutes ago)
Valid To Apr-26 @ 12:00 UTC
(in 8 hours)
Apr-26 @ 03:00 - Apr-26 @ 12:00
Wind Visibility
280° at 5 knots 10,000+ meters
Clouds
  • No significant clouds
Conditions
Probability 30% Temporary Apr-26 @ 03:00 - Apr-26 @ 06:00
Clouds
  • Scattered at 1,500' AGL
Conditions
  • Mist